createdAt,value
2023-01-15T00:00:04.662Z,992.88
2023-01-15T00:01:04.698Z,992.88
2023-01-15T00:02:04.659Z,992.82
2023-01-15T00:03:04.622Z,992.73
2023-01-15T00:04:04.609Z,992.75
2023-01-15T00:05:04.628Z,992.70
2023-01-15T00:06:04.577Z,992.90
2023-01-15T00:07:04.690Z,992.88
2023-01-15T00:08:04.702Z,992.85
2023-01-15T00:09:04.977Z,992.83
2023-01-15T00:10:04.601Z,992.83
2023-01-15T00:11:04.754Z,992.80
2023-01-15T00:12:04.628Z,992.87
2023-01-15T00:13:05.528Z,992.78
2023-01-15T00:14:04.528Z,992.82
2023-01-15T00:15:05.410Z,992.77
2023-01-15T00:16:05.378Z,992.68
2023-01-15T00:17:04.888Z,992.67
2023-01-15T00:18:04.450Z,992.72
2023-01-15T00:19:04.778Z,992.71
2023-01-15T00:20:04.437Z,992.74
2023-01-15T00:21:04.448Z,992.72
2023-01-15T00:22:04.413Z,992.63
2023-01-15T00:23:04.400Z,992.69
2023-01-15T00:24:04.518Z,992.66
2023-01-15T00:25:04.407Z,992.71
2023-01-15T00:26:04.384Z,992.73
2023-01-15T00:27:04.358Z,992.75
2023-01-15T00:28:04.426Z,992.74
2023-01-15T00:29:04.401Z,992.81
2023-01-15T00:30:04.329Z,992.79
2023-01-15T00:31:04.358Z,992.74
2023-01-15T00:32:04.309Z,992.73
2023-01-15T00:33:04.325Z,992.66
2023-01-15T00:34:04.318Z,992.68
2023-01-15T00:35:04.305Z,992.59
2023-01-15T00:36:04.326Z,992.61
2023-01-15T00:37:04.302Z,992.70
2023-01-15T00:38:04.300Z,992.68
2023-01-15T00:39:04.237Z,992.66
2023-01-15T00:40:04.225Z,992.65
2023-01-15T00:41:04.209Z,992.67
2023-01-15T00:42:04.239Z,992.71
2023-01-15T00:43:04.193Z,992.65
2023-01-15T00:44:04.217Z,992.63
2023-01-15T00:45:04.178Z,992.59
2023-01-15T00:46:04.172Z,992.52
2023-01-15T00:47:04.148Z,992.49
2023-01-15T00:48:04.149Z,992.42
2023-01-15T00:49:04.126Z,992.38
2023-01-15T00:50:04.206Z,992.37
2023-01-15T00:51:04.114Z,992.42
2023-01-15T00:52:04.127Z,992.37
2023-01-15T00:53:04.083Z,992.32
2023-01-15T00:54:04.108Z,992.25
2023-01-15T00:55:04.070Z,992.23
2023-01-15T00:56:04.106Z,992.24
2023-01-15T00:57:04.075Z,992.31
2023-01-15T00:58:04.026Z,992.33
2023-01-15T00:59:04.030Z,992.32
2023-01-15T01:00:04.046Z,992.34
2023-01-15T01:01:04.057Z,992.39
2023-01-15T01:02:04.570Z,992.41
2023-01-15T01:03:03.974Z,992.41
2023-01-15T01:04:03.987Z,992.45
2023-01-15T01:05:03.976Z,992.38
2023-01-15T01:06:03.982Z,992.31
2023-01-15T01:07:03.970Z,992.23
2023-01-15T01:08:03.933Z,992.19
2023-01-15T01:09:03.910Z,992.12
2023-01-15T01:10:03.928Z,992.20
2023-01-15T01:11:03.924Z,992.23
2023-01-15T01:12:03.944Z,992.30
2023-01-15T01:13:03.865Z,992.30
2023-01-15T01:14:03.861Z,992.26
2023-01-15T01:15:03.843Z,992.19
2023-01-15T01:16:03.919Z,992.19
2023-01-15T01:17:03.832Z,992.29
2023-01-15T01:18:03.853Z,992.46
2023-01-15T01:19:03.819Z,992.46
2023-01-15T01:20:03.803Z,992.50
2023-01-15T01:21:03.778Z,992.46
2023-01-15T01:22:03.800Z,992.53
2023-01-15T01:23:03.762Z,992.55
2023-01-15T01:24:03.765Z,992.53
2023-01-15T01:25:03.767Z,992.60
2023-01-15T01:26:09.733Z,992.62
2023-01-15T01:27:03.762Z,992.65
2023-01-15T01:28:03.730Z,992.63
2023-01-15T01:29:03.709Z,992.68
2023-01-15T01:30:03.690Z,992.65
2023-01-15T01:31:03.754Z,992.62
2023-01-15T01:32:03.657Z,992.64
2023-01-15T01:33:11.253Z,992.69
2023-01-15T01:34:12.211Z,992.73
2023-01-15T01:35:11.174Z,992.74
2023-01-15T01:36:03.741Z,992.73
2023-01-15T01:37:03.740Z,992.75
2023-01-15T01:38:03.659Z,992.77
2023-01-15T01:39:03.624Z,992.78
2023-01-15T01:40:03.609Z,992.73
2023-01-15T01:41:03.616Z,992.79
2023-01-15T01:42:03.601Z,992.78
2023-01-15T01:43:03.579Z,992.74
2023-01-15T01:44:03.678Z,992.70
2023-01-15T01:45:03.585Z,992.58
2023-01-15T01:46:03.609Z,992.74
2023-01-15T01:47:03.521Z,992.71
2023-01-15T01:48:03.548Z,992.73
2023-01-15T01:49:03.549Z,992.70
2023-01-15T01:50:03.569Z,992.76
2023-01-15T01:51:03.496Z,992.84
2023-01-15T01:52:03.479Z,992.85
2023-01-15T01:53:03.473Z,992.85
2023-01-15T01:54:03.474Z,992.91
2023-01-15T01:55:03.452Z,992.82
2023-01-15T01:56:03.500Z,992.68
2023-01-15T01:57:03.416Z,992.65
2023-01-15T01:58:03.430Z,992.68
2023-01-15T01:59:03.452Z,992.70
2023-01-15T02:00:03.402Z,992.68
2023-01-15T02:01:03.442Z,992.68
2023-01-15T02:02:03.474Z,992.70
2023-01-15T02:03:03.373Z,992.68
2023-01-15T02:04:03.354Z,992.68
2023-01-15T02:05:03.399Z,992.74
2023-01-15T02:06:03.347Z,992.68
2023-01-15T02:07:03.359Z,992.77
2023-01-15T02:08:03.315Z,992.77
2023-01-15T02:09:03.343Z,992.76
2023-01-15T02:10:03.358Z,992.83
2023-01-15T02:11:03.265Z,992.83
2023-01-15T02:12:03.267Z,992.71
2023-01-15T02:13:03.235Z,992.70
2023-01-15T02:14:03.240Z,992.65
2023-01-15T02:15:03.237Z,992.62
2023-01-15T02:16:03.306Z,992.58
2023-01-15T02:17:03.216Z,992.65
2023-01-15T02:18:03.263Z,992.64
2023-01-15T02:19:03.222Z,992.63
2023-01-15T02:20:03.170Z,992.61
2023-01-15T02:21:03.216Z,992.73
2023-01-15T02:22:03.199Z,992.78
2023-01-15T02:23:03.131Z,992.75
2023-01-15T02:24:03.463Z,992.70
2023-01-15T02:25:03.122Z,992.69
2023-01-15T02:26:03.179Z,992.64
2023-01-15T02:27:03.182Z,992.66
2023-01-15T02:28:03.132Z,992.64
2023-01-15T02:29:03.083Z,992.70
2023-01-15T02:30:03.070Z,992.73
2023-01-15T02:31:03.054Z,992.68
2023-01-15T02:32:03.045Z,992.61
2023-01-15T02:33:03.049Z,992.65
2023-01-15T02:34:03.073Z,992.70
2023-01-15T02:35:03.002Z,992.59
2023-01-15T02:36:03.015Z,992.57
2023-01-15T02:37:07.107Z,992.55
2023-01-15T02:38:03.037Z,992.45
2023-01-15T02:39:02.973Z,992.43
2023-01-15T02:40:03.011Z,992.43
2023-01-15T02:41:02.944Z,992.39
2023-01-15T02:42:02.964Z,992.33
2023-01-15T02:43:02.916Z,992.32
2023-01-15T02:44:02.962Z,992.44
2023-01-15T02:45:02.910Z,992.48
2023-01-15T02:46:02.978Z,992.49
2023-01-15T02:47:03.033Z,992.57
2023-01-15T02:48:02.922Z,992.46
2023-01-15T02:49:02.861Z,992.47
2023-01-15T02:50:02.860Z,992.45
2023-01-15T02:51:02.853Z,992.53
2023-01-15T02:52:02.824Z,992.60
2023-01-15T02:53:02.821Z,992.55
2023-01-15T02:54:02.893Z,992.48
2023-01-15T02:55:02.792Z,992.45
2023-01-15T02:56:02.791Z,992.45
2023-01-15T02:57:02.766Z,992.43
2023-01-15T02:58:02.761Z,992.46
2023-01-15T02:59:02.813Z,992.35
2023-01-15T03:00:02.744Z,992.48
2023-01-15T03:01:02.810Z,992.45
2023-01-15T03:02:02.916Z,992.45
2023-01-15T03:03:02.733Z,992.43
2023-01-15T03:04:02.771Z,992.40
2023-01-15T03:05:02.692Z,992.43
2023-01-15T03:06:02.680Z,992.43
2023-01-15T03:07:02.727Z,992.43
2023-01-15T03:08:02.659Z,992.47
2023-01-15T03:09:02.651Z,992.51
2023-01-15T03:10:02.713Z,992.48
2023-01-15T03:11:02.674Z,992.48
2023-01-15T03:12:02.661Z,992.51
2023-01-15T03:13:02.663Z,992.56
2023-01-15T03:14:02.604Z,992.60
2023-01-15T03:15:02.685Z,992.56
2023-01-15T03:16:02.571Z,992.58
2023-01-15T03:17:02.552Z,992.50
2023-01-15T03:18:02.621Z,992.49
2023-01-15T03:19:02.555Z,992.40
2023-01-15T03:20:02.538Z,992.39
2023-01-15T03:21:02.520Z,992.29
2023-01-15T03:22:02.520Z,992.27
2023-01-15T03:23:02.499Z,992.35
2023-01-15T03:24:02.631Z,992.30
2023-01-15T03:25:02.579Z,992.30
2023-01-15T03:26:02.481Z,992.25
2023-01-15T03:27:02.559Z,992.25
2023-01-15T03:28:02.475Z,992.21
2023-01-15T03:29:02.464Z,992.22
2023-01-15T03:30:02.429Z,992.25
2023-01-15T03:31:02.484Z,992.30
2023-01-15T03:32:02.507Z,992.37
2023-01-15T03:33:02.390Z,992.36
2023-01-15T03:34:02.422Z,992.31
2023-01-15T03:35:02.400Z,992.25
2023-01-15T03:36:02.382Z,992.23
2023-01-15T03:37:02.422Z,992.29
2023-01-15T03:38:02.446Z,992.24
2023-01-15T03:39:02.334Z,992.29
2023-01-15T03:40:02.358Z,992.20
2023-01-15T03:41:02.359Z,992.24
2023-01-15T03:42:02.351Z,992.22
2023-01-15T03:43:02.342Z,992.19
2023-01-15T03:44:02.297Z,992.20
2023-01-15T03:45:02.357Z,992.20
2023-01-15T03:46:02.348Z,992.14
2023-01-15T03:47:02.362Z,992.18
2023-01-15T03:48:02.305Z,992.17
2023-01-15T03:49:02.230Z,992.16
2023-01-15T03:50:02.221Z,992.17
2023-01-15T03:51:02.208Z,992.25
2023-01-15T03:52:02.229Z,992.28
2023-01-15T03:53:02.232Z,992.30
2023-01-15T03:54:02.249Z,992.34
2023-01-15T03:55:02.158Z,992.30
2023-01-15T03:56:02.164Z,992.30
2023-01-15T03:57:02.151Z,992.29
2023-01-15T03:58:02.161Z,992.31
2023-01-15T03:59:02.123Z,992.25
2023-01-15T04:00:02.150Z,992.21
2023-01-15T04:01:02.185Z,992.18
2023-01-15T04:02:02.224Z,992.19
2023-01-15T04:03:02.346Z,992.20
2023-01-15T04:04:02.106Z,992.20
2023-01-15T04:05:02.065Z,992.24
2023-01-15T04:06:02.048Z,992.20
2023-01-15T04:07:02.080Z,992.20
2023-01-15T04:08:02.024Z,992.25
2023-01-15T04:09:02.112Z,992.25
2023-01-15T04:10:02.009Z,992.31
2023-01-15T04:11:01.987Z,992.33
2023-01-15T04:12:01.986Z,992.30
2023-01-15T04:13:01.972Z,992.30
2023-01-15T04:14:02.116Z,992.34
2023-01-15T04:15:01.944Z,992.35
2023-01-15T04:16:02.145Z,992.33
2023-01-15T04:17:01.970Z,992.29
2023-01-15T04:18:01.919Z,992.26
2023-01-15T04:19:01.929Z,992.33
2023-01-15T04:20:01.909Z,992.30
2023-01-15T04:21:01.926Z,992.30
2023-01-15T04:22:01.879Z,992.27
2023-01-15T04:23:01.881Z,992.22
2023-01-15T04:24:01.999Z,992.16
2023-01-15T04:25:01.895Z,992.16
2023-01-15T04:26:01.834Z,992.20
2023-01-15T04:27:01.825Z,992.15
2023-01-15T04:28:01.825Z,992.14
2023-01-15T04:29:01.839Z,992.18
2023-01-15T04:30:01.897Z,992.15
2023-01-15T04:31:03.675Z,992.23
2023-01-15T04:32:01.782Z,992.25
2023-01-15T04:33:01.809Z,992.27
2023-01-15T04:34:01.893Z,992.26
2023-01-15T04:35:01.838Z,992.26
2023-01-15T04:36:01.735Z,992.27
2023-01-15T04:37:01.876Z,992.29
2023-01-15T04:38:01.836Z,992.32
2023-01-15T04:39:01.765Z,992.30
2023-01-15T04:40:01.737Z,992.30
2023-01-15T04:41:01.733Z,992.31
2023-01-15T04:42:01.739Z,992.36
2023-01-15T04:43:01.747Z,992.41
2023-01-15T04:44:01.686Z,992.42
2023-01-15T04:45:01.653Z,992.45
2023-01-15T04:46:01.747Z,992.38
2023-01-15T04:47:01.689Z,992.38
2023-01-15T04:48:01.966Z,992.43
2023-01-15T04:49:01.650Z,992.44
2023-01-15T04:50:01.670Z,992.43
2023-01-15T04:51:01.573Z,992.43
2023-01-15T04:52:01.559Z,992.46
2023-01-15T04:53:01.583Z,992.46
2023-01-15T04:54:01.570Z,992.43
2023-01-15T04:55:01.620Z,992.37
2023-01-15T04:56:01.620Z,992.31
2023-01-15T04:57:01.551Z,992.31
2023-01-15T04:58:01.578Z,992.32
2023-01-15T04:59:01.556Z,992.27
2023-01-15T05:00:01.654Z,992.28
2023-01-15T05:01:01.717Z,992.22
2023-01-15T05:02:06.061Z,992.23
2023-01-15T05:03:02.467Z,992.27
2023-01-15T05:04:01.464Z,992.31
2023-01-15T05:05:01.420Z,992.25
2023-01-15T05:06:01.408Z,992.35
2023-01-15T05:07:01.562Z,992.34
2023-01-15T05:08:01.415Z,992.28
2023-01-15T05:09:01.427Z,992.28
2023-01-15T05:10:01.471Z,992.28
2023-01-15T05:11:01.363Z,992.27
2023-01-15T05:12:01.375Z,992.28
2023-01-15T05:13:01.383Z,992.24
2023-01-15T05:14:01.322Z,992.27
2023-01-15T05:15:01.316Z,992.30
2023-01-15T05:16:01.351Z,992.26
2023-01-15T05:17:01.348Z,992.29
2023-01-15T05:18:01.314Z,992.31
2023-01-15T05:19:01.305Z,992.32
2023-01-15T05:20:01.296Z,992.27
2023-01-15T05:21:01.252Z,992.22
2023-01-15T05:22:01.349Z,992.27
2023-01-15T05:23:01.243Z,992.22
2023-01-15T05:24:01.293Z,992.24
2023-01-15T05:25:01.341Z,992.27
2023-01-15T05:26:01.216Z,992.25
2023-01-15T05:27:01.219Z,992.26
2023-01-15T05:28:01.221Z,992.27
2023-01-15T05:29:01.219Z,992.22
2023-01-15T05:30:01.246Z,992.25
2023-01-15T05:31:01.302Z,992.27
2023-01-15T05:32:01.267Z,992.32
2023-01-15T05:33:01.301Z,992.26
2023-01-15T05:34:01.102Z,992.26
2023-01-15T05:35:01.099Z,992.30
2023-01-15T05:36:01.080Z,992.29
2023-01-15T05:37:01.143Z,992.28
2023-01-15T05:38:01.153Z,992.24
2023-01-15T05:39:01.196Z,992.21
2023-01-15T05:40:01.072Z,992.22
2023-01-15T05:41:01.080Z,992.19
2023-01-15T05:42:01.100Z,992.21
2023-01-15T05:43:01.078Z,992.21
2023-01-15T05:44:00.996Z,992.27
2023-01-15T05:45:01.021Z,992.25
2023-01-15T05:46:01.071Z,992.26
2023-01-15T05:47:00.977Z,992.25
2023-01-15T05:48:01.019Z,992.24
2023-01-15T05:49:00.990Z,992.23
2023-01-15T05:50:00.925Z,992.27
2023-01-15T05:51:00.935Z,992.33
2023-01-15T05:52:00.977Z,992.28
2023-01-15T05:53:00.975Z,992.32
2023-01-15T05:54:00.937Z,992.26
2023-01-15T05:55:00.979Z,992.27
2023-01-15T05:56:00.940Z,992.24
2023-01-15T05:57:00.895Z,992.27
2023-01-15T05:58:00.846Z,992.32
2023-01-15T05:59:00.847Z,992.28
2023-01-15T06:00:00.923Z,992.31
2023-01-15T06:01:00.953Z,992.35
2023-01-15T06:02:00.795Z,992.40
2023-01-15T06:03:00.846Z,992.37
2023-01-15T06:04:00.925Z,992.36
2023-01-15T06:05:00.835Z,992.42
2023-01-15T06:06:00.817Z,992.37
2023-01-15T06:07:00.801Z,992.47
2023-01-15T06:08:01.482Z,992.43
2023-01-15T06:09:00.803Z,992.40
2023-01-15T06:10:00.733Z,992.37
2023-01-15T06:11:00.789Z,992.35
2023-01-15T06:12:00.780Z,992.44
2023-01-15T06:13:00.713Z,992.38
2023-01-15T06:14:00.753Z,992.41
2023-01-15T06:15:00.676Z,992.43
2023-01-15T06:16:00.761Z,992.46
2023-01-15T06:17:00.767Z,992.44
2023-01-15T06:18:00.676Z,992.43
2023-01-15T06:19:00.747Z,992.47
2023-01-15T06:20:00.713Z,992.44
2023-01-15T06:21:00.714Z,992.42
2023-01-15T06:22:00.688Z,992.40
2023-01-15T06:23:00.626Z,992.43
2023-01-15T06:24:00.577Z,992.54
2023-01-15T06:25:00.611Z,992.34
2023-01-15T06:26:00.666Z,992.37
2023-01-15T06:27:00.536Z,992.40
2023-01-15T06:28:00.575Z,992.45
2023-01-15T06:29:00.548Z,992.48
2023-01-15T06:30:00.558Z,992.40
2023-01-15T06:31:00.630Z,992.41
2023-01-15T06:32:00.649Z,992.39
2023-01-15T06:33:00.482Z,992.43
2023-01-15T06:34:00.648Z,992.39
2023-01-15T06:35:00.488Z,992.42
2023-01-15T06:36:00.473Z,992.51
2023-01-15T06:37:00.509Z,992.45
2023-01-15T06:38:00.517Z,992.49
2023-01-15T06:39:00.424Z,992.39
2023-01-15T06:40:00.407Z,992.38
2023-01-15T06:41:00.450Z,992.38
2023-01-15T06:42:00.430Z,992.42
2023-01-15T06:43:00.513Z,992.43
2023-01-15T06:44:00.393Z,992.42
2023-01-15T06:45:00.476Z,992.39
2023-01-15T06:46:00.520Z,992.43
2023-01-15T06:47:00.394Z,992.47
2023-01-15T06:48:00.324Z,992.40
2023-01-15T06:49:00.331Z,992.41
2023-01-15T06:50:00.442Z,992.40
2023-01-15T06:51:00.329Z,992.47
2023-01-15T06:52:00.343Z,992.43
2023-01-15T06:53:00.303Z,992.41
2023-01-15T06:54:00.312Z,992.45
2023-01-15T06:55:00.382Z,992.43
2023-01-15T06:56:00.242Z,992.44
2023-01-15T06:57:00.224Z,992.53
2023-01-15T06:58:00.243Z,992.51
2023-01-15T06:59:00.281Z,992.58
2023-01-15T07:00:00.314Z,992.53
2023-01-15T07:01:00.333Z,992.53
2023-01-15T07:02:00.612Z,992.51
2023-01-15T07:03:00.514Z,992.46
2023-01-15T07:04:00.251Z,992.51
2023-01-15T07:05:00.176Z,992.52
2023-01-15T07:06:00.188Z,992.42
2023-01-15T07:07:00.212Z,992.51
2023-01-15T07:08:00.151Z,992.52
2023-01-15T07:09:00.129Z,992.46
2023-01-15T07:10:00.202Z,992.42
2023-01-15T07:11:00.112Z,992.43
2023-01-15T07:12:00.185Z,992.48
2023-01-15T07:13:00.072Z,992.51
2023-01-15T07:14:00.108Z,992.52
2023-01-15T07:15:00.070Z,992.32
2023-01-15T07:16:00.085Z,992.24
2023-01-15T07:17:00.021Z,992.23
2023-01-15T07:18:00.051Z,992.30
2023-01-15T07:19:00.040Z,992.25
2023-01-15T07:20:00.001Z,992.30
2023-01-15T07:21:00.016Z,992.42
2023-01-15T07:21:59.979Z,992.32
2023-01-15T07:22:59.984Z,992.32
2023-01-15T07:23:59.987Z,992.32
2023-01-15T07:24:59.948Z,992.34
2023-01-15T07:25:59.981Z,992.41
2023-01-15T07:26:59.933Z,992.41
2023-01-15T07:27:59.940Z,992.41
2023-01-15T07:28:59.895Z,992.41
2023-01-15T07:29:59.859Z,992.43
2023-01-15T07:30:59.861Z,992.51
2023-01-15T07:31:59.927Z,992.44
2023-01-15T07:32:59.888Z,992.41
2023-01-15T07:33:59.928Z,992.31
2023-01-15T07:34:59.921Z,992.47
2023-01-15T07:35:59.893Z,992.63
2023-01-15T07:36:59.894Z,992.62
2023-01-15T07:37:59.789Z,992.68
2023-01-15T07:38:59.810Z,992.70
2023-01-15T07:39:59.818Z,992.73
2023-01-15T07:40:59.854Z,992.52
2023-01-15T07:41:59.816Z,992.67
2023-01-15T07:42:59.827Z,992.72
2023-01-15T07:43:59.717Z,992.69
2023-01-15T07:44:59.715Z,992.71
2023-01-15T07:45:59.714Z,992.74
2023-01-15T07:46:59.731Z,992.70
2023-01-15T07:48:00.714Z,992.72
2023-01-15T07:48:59.695Z,992.79
2023-01-15T07:50:01.417Z,992.80
2023-01-15T07:50:59.691Z,992.75
2023-01-15T07:51:59.696Z,992.72
2023-01-15T07:52:59.665Z,992.70
2023-01-15T07:53:59.624Z,992.80
2023-01-15T07:54:59.644Z,992.62
2023-01-15T07:55:59.636Z,992.73
2023-01-15T07:56:59.616Z,992.75
2023-01-15T07:57:59.605Z,992.76
2023-01-15T07:58:59.602Z,992.70
2023-01-15T07:59:59.544Z,992.76
2023-01-15T08:00:59.705Z,992.76
2023-01-15T08:01:59.695Z,992.85
2023-01-15T08:02:59.537Z,992.79
2023-01-15T08:03:59.610Z,992.81
2023-01-15T08:04:59.507Z,992.83
2023-01-15T08:05:59.514Z,992.82
2023-01-15T08:06:59.486Z,992.84
2023-01-15T08:07:59.499Z,992.83
2023-01-15T08:08:59.453Z,992.87
2023-01-15T08:09:59.454Z,992.78
2023-01-15T08:10:59.601Z,992.78
2023-01-15T08:11:59.445Z,992.86
2023-01-15T08:13:06.926Z,992.78
2023-01-15T08:13:59.405Z,992.74
2023-01-15T08:14:59.396Z,992.77
2023-01-15T08:15:59.393Z,992.92
2023-01-15T08:16:59.390Z,992.94
2023-01-15T08:17:59.365Z,992.93
2023-01-15T08:18:59.389Z,992.97
2023-01-15T08:19:59.353Z,992.91
2023-01-15T08:20:59.334Z,992.98
2023-01-15T08:21:59.324Z,993.00
2023-01-15T08:22:59.328Z,993.00
2023-01-15T08:23:59.325Z,992.72
2023-01-15T08:24:59.404Z,993.16
2023-01-15T08:25:59.293Z,992.94
2023-01-15T08:26:59.272Z,993.02
2023-01-15T08:27:59.314Z,992.94
2023-01-15T08:28:59.537Z,993.08
2023-01-15T08:29:59.275Z,993.02
2023-01-15T08:30:59.221Z,993.08
2023-01-15T08:32:06.735Z,993.04
2023-01-15T08:32:59.211Z,993.04
2023-01-15T08:33:59.243Z,993.01
2023-01-15T08:34:59.194Z,993.02
2023-01-15T08:35:59.183Z,993.13
2023-01-15T08:36:59.165Z,993.11
2023-01-15T08:37:59.176Z,993.05
2023-01-15T08:38:59.153Z,993.14
2023-01-15T08:39:59.165Z,993.28
2023-01-15T08:40:59.218Z,993.17
2023-01-15T08:41:59.132Z,993.28
2023-01-15T08:42:59.106Z,993.25
2023-01-15T08:43:59.128Z,993.09
2023-01-15T08:44:59.103Z,993.16
2023-01-15T08:45:59.325Z,993.17
2023-01-15T08:46:59.052Z,993.21
2023-01-15T08:47:59.929Z,993.20
2023-01-15T08:48:59.031Z,993.19
2023-01-15T08:49:59.084Z,992.98
2023-01-15T08:50:59.038Z,993.14
2023-01-15T08:51:59.026Z,993.10
2023-01-15T08:52:59.041Z,993.12
2023-01-15T08:53:59.014Z,993.19
2023-01-15T08:54:59.093Z,993.18
2023-01-15T08:55:58.959Z,993.20
2023-01-15T08:56:58.983Z,993.20
2023-01-15T08:57:58.932Z,993.31
2023-01-15T08:58:59.016Z,993.26
2023-01-15T08:59:58.960Z,993.23
2023-01-15T09:00:59.056Z,993.34
2023-01-15T09:01:59.070Z,993.29
2023-01-15T09:02:58.882Z,993.28
2023-01-15T09:03:58.862Z,993.24
2023-01-15T09:04:58.951Z,993.10
2023-01-15T09:05:58.915Z,993.24
2023-01-15T09:06:58.920Z,993.32
2023-01-15T09:07:58.916Z,993.30
2023-01-15T09:08:58.902Z,993.45
2023-01-15T09:09:58.830Z,993.40
2023-01-15T09:10:58.820Z,993.34
2023-01-15T09:11:58.789Z,993.39
2023-01-15T09:12:58.785Z,993.43
2023-01-15T09:13:58.827Z,993.45
2023-01-15T09:15:02.563Z,993.42
2023-01-15T09:15:58.757Z,993.43
2023-01-15T09:16:58.797Z,993.44
2023-01-15T09:17:58.754Z,993.39
2023-01-15T09:18:58.740Z,993.38
2023-01-15T09:19:58.759Z,993.42
2023-01-15T09:20:58.693Z,993.37
2023-01-15T09:21:58.699Z,993.29
2023-01-15T09:22:58.708Z,993.29
2023-01-15T09:23:58.663Z,993.30
2023-01-15T09:24:58.679Z,993.34
2023-01-15T09:25:58.687Z,993.14
2023-01-15T09:26:58.638Z,993.20
2023-01-15T09:27:58.816Z,993.40
2023-01-15T09:28:58.611Z,993.26
2023-01-15T09:29:58.605Z,993.23
2023-01-15T09:30:58.641Z,993.25
2023-01-15T09:31:58.627Z,993.25
2023-01-15T09:32:58.600Z,993.20
2023-01-15T09:33:58.600Z,993.21
2023-01-15T09:35:05.839Z,993.17
2023-01-15T09:35:58.540Z,993.27
2023-01-15T09:36:58.552Z,993.21
2023-01-15T09:37:58.509Z,993.20
2023-01-15T09:38:58.543Z,993.21
2023-01-15T09:39:58.509Z,993.28
2023-01-15T09:40:58.537Z,993.15
2023-01-15T09:41:58.497Z,993.17
2023-01-15T09:42:58.506Z,993.30
2023-01-15T09:43:58.565Z,993.22
2023-01-15T09:44:58.438Z,993.19
2023-01-15T09:45:58.473Z,993.18
2023-01-15T09:46:58.424Z,993.13
2023-01-15T09:47:58.479Z,993.29
2023-01-15T09:48:58.406Z,993.30
2023-01-15T09:49:58.389Z,993.32
2023-01-15T09:50:58.389Z,993.28
2023-01-15T09:51:58.496Z,993.20
2023-01-15T09:52:58.370Z,993.31
2023-01-15T09:53:58.419Z,993.26
2023-01-15T09:54:58.329Z,993.07
2023-01-15T09:55:58.334Z,993.22
2023-01-15T09:56:58.305Z,993.27
2023-01-15T09:57:58.312Z,993.30
2023-01-15T09:58:58.301Z,993.29
2023-01-15T09:59:58.307Z,993.14
2023-01-15T10:00:58.475Z,993.21
2023-01-15T10:01:58.276Z,993.18
2023-01-15T10:02:58.257Z,993.12
2023-01-15T10:04:00.437Z,993.25
2023-01-15T10:04:58.282Z,993.22
2023-01-15T10:05:58.305Z,993.27
2023-01-15T10:06:58.404Z,993.32
2023-01-15T10:07:58.223Z,993.42
2023-01-15T10:08:58.222Z,993.44
2023-01-15T10:09:58.182Z,993.49
2023-01-15T10:10:58.154Z,993.45
2023-01-15T10:11:58.245Z,993.41
2023-01-15T10:12:58.141Z,993.43
2023-01-15T10:13:58.133Z,993.37
2023-01-15T10:14:58.164Z,993.47
2023-01-15T10:15:58.639Z,993.29
2023-01-15T10:16:58.328Z,993.46
2023-01-15T10:17:58.164Z,993.19
2023-01-15T10:18:58.164Z,993.38
2023-01-15T10:19:58.104Z,993.24
2023-01-15T10:20:58.137Z,993.41
2023-01-15T10:21:58.064Z,993.54
2023-01-15T10:22:59.649Z,993.45
2023-01-15T10:23:58.137Z,993.48
2023-01-15T10:24:58.058Z,993.52
2023-01-15T10:25:58.012Z,993.56
2023-01-15T10:26:58.017Z,993.56
2023-01-15T10:27:58.015Z,993.46
2023-01-15T10:28:58.096Z,993.47
2023-01-15T10:29:58.030Z,993.48
2023-01-15T10:30:58.172Z,993.41
2023-01-15T10:31:58.004Z,993.32
2023-01-15T10:33:02.653Z,993.35
2023-01-15T10:33:58.997Z,993.34
2023-01-15T10:34:57.927Z,993.40
2023-01-15T10:35:57.931Z,993.39
2023-01-15T10:36:57.912Z,993.52
2023-01-15T10:37:57.975Z,993.47
2023-01-15T10:38:57.915Z,993.42
2023-01-15T10:39:57.937Z,993.50
2023-01-15T10:40:57.843Z,993.39
2023-01-15T10:41:57.933Z,993.36
2023-01-15T10:42:57.912Z,993.30
2023-01-15T10:43:57.853Z,993.45
2023-01-15T10:44:57.843Z,993.36
2023-01-15T10:45:57.888Z,993.35
2023-01-15T10:46:58.642Z,993.44
2023-01-15T10:47:57.816Z,993.39
2023-01-15T10:48:57.911Z,993.39
2023-01-15T10:49:57.857Z,993.51
2023-01-15T10:50:57.771Z,993.45
2023-01-15T10:51:57.770Z,993.40
2023-01-15T10:52:57.727Z,993.36
2023-01-15T10:53:57.817Z,993.30
2023-01-15T10:54:57.813Z,993.46
2023-01-15T10:55:57.715Z,993.62
2023-01-15T10:56:57.685Z,993.49
2023-01-15T10:58:09.314Z,993.49
2023-01-15T10:58:58.654Z,993.50
2023-01-15T10:59:57.653Z,993.49
2023-01-15T11:00:57.712Z,993.39
2023-01-15T11:01:57.863Z,993.49
2023-01-15T11:02:57.645Z,993.32
2023-01-15T11:03:57.600Z,993.42
2023-01-15T11:04:57.597Z,993.47
2023-01-15T11:05:57.902Z,993.51
2023-01-15T11:06:57.598Z,993.51
2023-01-15T11:09:13.916Z,993.43
2023-01-15T11:09:58.549Z,993.37
2023-01-15T11:10:57.614Z,993.36
2023-01-15T11:11:57.539Z,993.50
2023-01-15T11:12:57.593Z,993.62
2023-01-15T11:13:57.497Z,993.52
2023-01-15T11:14:57.602Z,993.50
2023-01-15T11:15:57.595Z,993.48
2023-01-15T11:16:57.519Z,993.50
2023-01-15T11:17:57.467Z,993.45
2023-01-15T11:18:57.438Z,993.64
2023-01-15T11:19:57.428Z,993.60
2023-01-15T11:20:57.559Z,993.54
2023-01-15T11:21:57.650Z,993.52
2023-01-15T11:22:57.440Z,993.46
2023-01-15T11:23:57.566Z,993.57
2023-01-15T11:24:57.389Z,993.50
2023-01-15T11:25:57.392Z,993.55
2023-01-15T11:26:57.350Z,993.43
2023-01-15T11:27:57.385Z,993.65
2023-01-15T11:28:57.327Z,993.34
2023-01-15T11:29:57.362Z,993.51
2023-01-15T11:30:57.426Z,993.59
2023-01-15T11:31:57.344Z,993.36
2023-01-15T11:32:57.283Z,993.44
2023-01-15T11:33:57.287Z,993.53
2023-01-15T11:34:57.337Z,993.43
2023-01-15T11:35:57.336Z,993.52
2023-01-15T11:36:57.254Z,993.34
2023-01-15T11:37:57.254Z,993.44
2023-01-15T11:38:57.237Z,993.42
2023-01-15T11:39:57.218Z,993.31
2023-01-15T11:40:59.864Z,993.41
2023-01-15T11:41:57.189Z,993.42
2023-01-15T11:42:57.306Z,993.36
2023-01-15T11:43:57.209Z,993.31
2023-01-15T11:44:57.193Z,993.41
2023-01-15T11:45:57.203Z,993.48
2023-01-15T11:46:57.137Z,993.42
2023-01-15T11:47:57.260Z,993.47
2023-01-15T11:48:57.137Z,993.45
2023-01-15T11:49:57.125Z,993.47
2023-01-15T11:50:57.136Z,993.31
2023-01-15T11:51:57.106Z,993.35
2023-01-15T11:52:57.107Z,993.29
2023-01-15T11:53:57.073Z,993.31
2023-01-15T11:54:57.078Z,993.37
2023-01-15T11:55:57.057Z,993.30
2023-01-15T11:56:57.041Z,993.37
2023-01-15T11:57:57.043Z,993.30
2023-01-15T11:58:57.004Z,993.39
2023-01-15T11:59:57.044Z,993.33
2023-01-15T12:00:57.145Z,993.31
2023-01-15T12:01:56.967Z,993.34
2023-01-15T12:02:56.977Z,993.41
2023-01-15T12:03:57.201Z,993.32
2023-01-15T12:04:56.976Z,993.46
2023-01-15T12:05:56.997Z,993.44
2023-01-15T12:06:56.956Z,993.34
2023-01-15T12:07:56.976Z,993.10
2023-01-15T12:08:56.913Z,993.28
2023-01-15T12:09:56.901Z,993.52
2023-01-15T12:10:56.892Z,993.38
2023-01-15T12:11:56.926Z,993.32
2023-01-15T12:12:56.864Z,993.38
2023-01-15T12:13:56.854Z,993.37
2023-01-15T12:14:56.907Z,993.32
2023-01-15T12:15:56.937Z,993.45
2023-01-15T12:16:56.846Z,993.46
2023-01-15T12:17:56.808Z,993.33
2023-01-15T12:18:56.810Z,993.42
2023-01-15T12:19:56.797Z,993.22
2023-01-15T12:20:56.837Z,993.34
2023-01-15T12:21:56.804Z,993.13
2023-01-15T12:22:56.797Z,993.22
2023-01-15T12:23:56.823Z,993.39
2023-01-15T12:24:56.746Z,993.31
2023-01-15T12:25:56.765Z,993.21
2023-01-15T12:26:56.721Z,993.28
2023-01-15T12:27:56.779Z,993.29
2023-01-15T12:28:56.692Z,993.30